Kanata, Canada
Current Conditions -  °F | °C
As of 8:00 AM on Thursday 18 Dec 2014 (Local Time) from CYOW Reporting Station
Light Snow Light Snow  
Wind Chill: 17°   Ceiling: 600
Heat Index: 28°   Visibility: 1.5mi
Dew Point: 28°   Wind: 15mph
Humidity: 100%   Direction: 290°WNW
Pressure: 29.91"   Gusts: 21mph
Location:  45.3°N, 75.91°W
Report Text: CYOW 181300Z 29013G18KT 1 1/2SM -SN BR BKN006 OVC018 M02/M02 A2991 RMK SN3SF2SC3 SLP134
Loading
Personal Weather Stations






























Interactive Weather Map New forecast layout! Learn more

10-Day Weather Forecast

Advertisements
Track Severe Weather on mobile